Time;durP1;ratioP1;P1;durP2;ratioP2;P2;SDS_P1;SDS_P2;PMS_P1;PMS_P2;Temp;Humidity;BMP_temperature;BMP_pressure;BME280_temperature;BME280_humidity;BME280_pressure;Samples;Min_cycle;Max_cycle;Signal;HPM_P1;HPM_P2
2024/03/19 00:00:16;;;;;;;4.97;3.33;;;;;;;2.77;100.00;99657.31;1744509;82;21023;-74
2024/03/19 00:02:46;;;;;;;5.00;3.47;;;;;;;2.80;100.00;99657.48;1746658;81;21054;-75
2024/03/19 00:05:15;;;;;;;6.00;3.50;;;;;;;2.77;100.00;99654.60;1744362;82;21459;-74
2024/03/19 00:07:44;;;;;;;5.75;3.70;;;;;;;2.79;100.00;99651.73;1744308;82;20999;-75
2024/03/19 00:10:13;;;;;;;4.28;3.10;;;;;;;2.84;100.00;99642.61;1744824;80;21323;-75
2024/03/19 00:12:41;;;;;;;5.33;3.55;;;;;;;2.85;100.00;99642.95;1746953;82;21035;-74
2024/03/19 00:15:10;;;;;;;5.87;3.55;;;;;;;2.87;100.00;99642.27;1745642;80;21078;-72
2024/03/19 00:17:39;;;;;;;6.62;3.92;;;;;;;2.89;100.00;99638.05;1744633;82;21038;-75
2024/03/19 00:20:10;;;;;;;5.85;3.35;;;;;;;2.91;100.00;99644.98;1744421;82;21494;-73
2024/03/19 00:22:38;;;;;;;5.20;3.98;;;;;;;2.91;100.00;99645.49;1744751;82;21074;-75
2024/03/19 00:25:08;;;;;;;6.12;4.35;;;;;;;2.92;100.00;99643.13;1744497;82;21502;-75
2024/03/19 00:27:37;;;;;;;7.10;5.05;;;;;;;2.92;100.00;99638.56;1740484;81;21503;-75
2024/03/19 00:30:09;;;;;;;8.08;4.85;;;;;;;2.93;100.00;99640.25;1748331;81;21074;-75
2024/03/19 00:32:38;;;;;;;6.90;4.87;;;;;;;2.95;100.00;99636.02;1736719;81;21125;-75
2024/03/19 00:35:09;;;;;;;7.90;5.25;;;;;;;2.99;100.00;99624.70;1751746;81;21073;-76
2024/03/19 00:37:39;;;;;;;7.28;4.87;;;;;;;3.00;100.00;99631.80;1745316;81;21035;-74
2024/03/19 00:40:12;;;;;;;7.58;5.12;;;;;;;3.02;100.00;99630.28;1746653;81;21003;-73
2024/03/19 00:42:41;;;;;;;7.62;4.90;;;;;;;2.99;100.00;99627.91;1704922;83;21063;-74
2024/03/19 00:45:30;;;;;;;8.38;5.35;;;;;;;2.96;100.00;99629.60;1749383;81;21502;-74
2024/03/19 00:47:59;;;;;;;10.55;5.60;;;;;;;2.99;100.00;99626.05;1700614;83;21098;-74
2024/03/19 00:50:27;;;;;;;9.15;5.42;;;;;;;3.01;100.00;99624.02;1701539;83;21071;-74
2024/03/19 00:52:57;;;;;;;9.20;6.08;;;;;;;3.02;100.00;99619.45;1701207;83;21079;-75
2024/03/19 00:55:26;;;;;;;9.53;5.80;;;;;;;3.07;100.00;99619.80;1702606;84;21062;-75
2024/03/19 00:57:56;;;;;;;10.93;5.60;;;;;;;3.09;100.00;99620.48;1701787;83;21039;-74
2024/03/19 01:00:24;;;;;;;11.70;6.35;;;;;;;3.09;100.00;99621.83;1701018;84;21487;-75
2024/03/19 01:02:54;;;;;;;10.68;6.35;;;;;;;3.10;100.00;99623.52;1701150;84;21583;-75
2024/03/19 01:05:23;;;;;;;10.93;6.65;;;;;;;3.11;100.00;99618.45;1702498;83;21107;-74
2024/03/19 01:07:52;;;;;;;10.15;6.90;;;;;;;3.11;100.00;99611.68;1708060;84;21074;-74
2024/03/19 01:10:22;;;;;;;12.90;6.75;;;;;;;3.08;100.00;99612.86;1702854;83;21087;-74
2024/03/19 01:12:51;;;;;;;10.55;6.28;;;;;;;3.13;100.00;99620.48;1707236;84;21499;-75
2024/03/19 01:15:20;;;;;;;9.93;6.12;;;;;;;3.15;100.00;99623.86;1702951;84;21099;-75
2024/03/19 01:17:51;;;;;;;17.92;8.90;;;;;;;3.17;100.00;99621.83;1708677;83;21471;-75
2024/03/19 01:20:20;;;;;;;17.90;9.73;;;;;;;3.18;100.00;99623.02;1704253;83;21099;-75
2024/03/19 01:22:49;;;;;;;20.48;11.03;;;;;;;3.20;100.00;99628.26;1705475;83;21122;-75
2024/03/19 01:25:19;;;;;;;20.50;12.30;;;;;;;3.27;100.00;99633.36;1700536;84;21479;-75
2024/03/19 01:27:50;;;;;;;20.95;11.95;;;;;;;3.33;100.00;99627.27;1701570;83;21078;-75
2024/03/19 01:30:21;;;;;;;23.73;12.50;;;;;;;3.38;100.00;99630.81;1708709;83;21576;-74
2024/03/19 01:32:50;;;;;;;21.65;12.25;;;;;;;3.41;100.00;99648.92;1708890;83;21507;-74
2024/03/19 01:35:18;;;;;;;22.75;11.70;;;;;;;3.42;100.00;99640.29;1708895;84;21055;-74
2024/03/19 01:37:48;;;;;;;22.62;12.75;;;;;;;3.39;100.00;99636.06;1707900;84;21058;-76
2024/03/19 01:40:17;;;;;;;20.15;10.25;;;;;;;3.42;100.00;99641.13;1708579;83;21463;-75
2024/03/19 01:42:45;;;;;;;22.22;11.65;;;;;;;3.40;100.00;99645.88;1712306;83;21176;-74
2024/03/19 01:45:15;;;;;;;21.23;10.98;;;;;;;3.30;100.00;99641.65;1701452;83;21644;-75
2024/03/19 01:47:44;;;;;;;17.60;9.98;;;;;;;3.27;100.00;99637.93;1701625;83;21020;-74
2024/03/19 01:50:14;;;;;;;20.08;10.78;;;;;;;3.24;100.00;99640.44;1704979;83;21094;-74
2024/03/19 01:52:47;;;;;;;19.10;10.65;;;;;;;3.21;100.00;99644.83;1702696;84;21082;-75
2024/03/19 01:55:16;;;;;;;18.42;10.10;;;;;;;3.19;100.00;99646.86;1705595;83;21050;-74
2024/03/19 01:57:46;;;;;;;20.23;10.50;;;;;;;3.14;100.00;99656.00;1706671;84;21083;-74
2024/03/19 02:00:16;;;;;;;19.27;9.85;;;;;;;3.11;100.00;99649.56;1702507;84;21051;-74
2024/03/19 02:02:45;;;;;;;18.77;9.88;;;;;;;3.06;100.00;99647.88;1701487;83;21047;-74
2024/03/19 02:05:15;;;;;;;18.27;9.80;;;;;;;3.00;100.00;99648.55;1708953;84;21074;-74
2024/03/19 02:07:45;;;;;;;16.77;9.13;;;;;;;2.94;100.00;99647.86;1708294;84;21079;-74
2024/03/19 02:10:14;;;;;;;16.65;9.50;;;;;;;2.88;100.00;99648.53;1704256;83;21102;-75
2024/03/19 02:12:43;;;;;;;12.68;7.70;;;;;;;2.85;100.00;99661.38;1702402;83;21091;-73
2024/03/19 02:15:12;;;;;;;9.75;6.05;;;;;;;2.83;100.00;99670.67;1701437;84;21078;-74
2024/03/19 02:17:42;;;;;;;8.00;4.97;;;;;;;2.75;100.00;99666.09;1708627;83;21479;-74
2024/03/19 02:20:15;;;;;;;8.48;5.15;;;;;;;2.72;100.00;99670.48;1706058;84;21051;-74
2024/03/19 02:22:46;;;;;;;9.53;5.83;;;;;;;2.71;100.00;99673.35;1704182;83;21102;-74
2024/03/19 02:25:16;;;;;;;9.30;5.45;;;;;;;2.68;100.00;99670.47;1705393;83;21439;-75
2024/03/19 02:27:46;;;;;;;8.95;5.20;;;;;;;2.65;100.00;99672.16;1701354;83;21556;-74
2024/03/19 02:30:15;;;;;;;9.50;6.10;;;;;;;2.58;100.00;99671.09;1701432;83;21027;-75
2024/03/19 02:32:44;;;;;;;10.28;6.80;;;;;;;2.54;100.00;99676.48;1708493;83;21075;-75
2024/03/19 02:35:13;;;;;;;10.63;7.33;;;;;;;2.51;100.00;99672.75;1700118;83;21165;-74
2024/03/19 02:37:42;;;;;;;10.95;8.00;;;;;;;2.50;100.00;99676.47;1701629;84;21094;-74
2024/03/19 02:40:12;;;;;;;12.58;7.70;;;;;;;2.49;100.00;99682.38;1708686;83;21059;-73
2024/03/19 02:42:41;;;;;;;12.75;7.72;;;;;;;2.49;100.00;99676.13;1704058;83;21557;-74
2024/03/19 02:45:10;;;;;;;14.55;9.10;;;;;;;2.45;100.00;99676.96;1705350;83;21122;-74
2024/03/19 02:47:39;;;;;;;16.57;10.40;;;;;;;2.43;100.00;99674.08;1701373;83;21137;-76
2024/03/19 02:50:08;;;;;;;13.68;9.05;;;;;;;2.46;100.00;99681.86;1709492;83;21471;-74
2024/03/19 02:52:37;;;;;;;14.78;9.63;;;;;;;2.49;100.00;99686.94;1701606;83;21478;-74
2024/03/19 02:55:09;;;;;;;13.15;8.93;;;;;;;2.51;100.00;99695.73;1704680;83;21047;-74
2024/03/19 02:57:38;;;;;;;10.82;7.78;;;;;;;2.51;100.00;99688.98;1702535;83;21059;-73
2024/03/19 03:00:09;;;;;;;11.18;7.37;;;;;;;2.49;100.00;99697.76;1707186;83;21595;-75
2024/03/19 03:02:39;;;;;;;9.18;6.20;;;;;;;2.50;100.00;99702.16;1705916;84;21067;-73
2024/03/19 03:05:08;;;;;;;9.30;6.78;;;;;;;2.45;100.00;99700.45;1701031;83;21071;-75
2024/03/19 03:07:38;;;;;;;8.28;6.40;;;;;;;2.45;100.00;99704.00;1703453;83;21087;-75
2024/03/19 03:10:07;;;;;;;8.25;6.00;;;;;;;2.47;100.00;99708.73;1703231;83;21094;-73
2024/03/19 03:12:37;;;;;;;6.90;5.17;;;;;;;2.45;100.00;99715.31;1700732;84;21576;-74
2024/03/19 03:15:08;;;;;;;8.58;6.10;;;;;;;2.46;100.00;99715.66;1705220;84;21090;-74
2024/03/19 03:17:38;;;;;;;8.30;6.03;;;;;;;2.47;100.00;99712.80;1702405;83;21087;-74
2024/03/19 03:20:11;;;;;;;8.33;5.87;;;;;;;2.49;100.00;99715.33;1704479;83;21584;-74
2024/03/19 03:22:40;;;;;;;6.35;4.92;;;;;;;2.54;100.00;99723.80;1704296;83;21067;-74
2024/03/19 03:25:11;;;;;;;6.95;5.03;;;;;;;2.56;100.00;99720.43;1702794;84;21108;-74
2024/03/19 03:27:44;;;;;;;9.18;6.22;;;;;;;2.52;100.00;99726.67;1702556;83;21105;-74
2024/03/19 03:30:14;;;;;;;9.70;6.12;;;;;;;2.49;100.00;99725.64;1705015;83;21055;-74
2024/03/19 03:32:47;;;;;;;9.05;5.87;;;;;;;2.47;100.00;99733.06;1702396;83;21034;-74
2024/03/19 03:35:18;;;;;;;9.20;7.20;;;;;;;2.44;100.00;99742.01;1701417;84;21483;-74
2024/03/19 03:37:47;;;;;;;8.48;5.95;;;;;;;2.42;100.00;99743.52;1701719;84;21479;-74
2024/03/19 03:40:18;;;;;;;8.93;6.03;;;;;;;2.44;100.00;99743.36;1702150;84;21548;-75
2024/03/19 03:42:49;;;;;;;8.33;5.60;;;;;;;2.45;100.00;99753.16;1708084;83;21078;-74
2024/03/19 03:45:21;;;;;;;8.05;5.40;;;;;;;2.42;100.00;99752.14;1707895;83;21513;-75
2024/03/19 03:47:49;;;;;;;6.00;4.20;;;;;;;2.43;100.00;99751.13;1708752;84;21043;-74
2024/03/19 03:50:19;;;;;;;5.50;3.67;;;;;;;2.41;100.00;99758.05;1708344;84;21264;-74
2024/03/19 03:52:48;;;;;;;6.85;3.83;;;;;;;2.38;100.00;99763.78;1708778;84;21107;-75
2024/03/19 03:55:17;;;;;;;5.08;3.50;;;;;;;2.35;100.00;99770.01;1706822;84;21058;-73
2024/03/19 03:57:47;;;;;;;5.75;3.35;;;;;;;2.34;100.00;99773.72;1703814;84;21098;-73
2024/03/19 04:00:18;;;;;;;6.60;3.33;;;;;;;2.31;100.00;99774.89;1701440;83;21058;-73
2024/03/19 04:02:47;;;;;;;7.95;3.33;;;;;;;2.31;100.00;99778.09;1704243;83;21071;-73
2024/03/19 04:05:16;;;;;;;7.65;2.83;;;;;;;2.29;100.00;99784.16;1701608;83;21027;-74
2024/03/19 04:07:45;;;;;;;6.33;3.17;;;;;;;2.28;100.00;99781.12;1702695;83;21054;-74
2024/03/19 04:10:16;;;;;;;4.92;3.22;;;;;;;2.31;100.00;99788.91;1701442;83;21509;-74
2024/03/19 04:12:46;;;;;;;4.85;3.35;;;;;;;2.33;100.00;99796.35;1701437;83;21487;-74
2024/03/19 04:15:16;;;;;;;4.60;3.05;;;;;;;2.33;100.00;99798.55;1705354;84;21523;-74
2024/03/19 04:17:47;;;;;;;4.00;2.90;;;;;;;2.32;100.00;99796.01;1704905;83;21047;-74
2024/03/19 04:20:20;;;;;;;5.37;3.20;;;;;;;2.29;100.00;99803.09;1708097;83;21059;-74
2024/03/19 04:22:48;;;;;;;6.55;3.52;;;;;;;2.25;100.00;99803.91;1701537;83;21063;-74
2024/03/19 04:25:17;;;;;;;5.97;3.80;;;;;;;2.27;100.00;99815.41;1701474;83;21055;-75
2024/03/19 04:27:47;;;;;;;3.60;2.80;;;;;;;2.31;100.00;99821.34;1708143;83;21090;-74
2024/03/19 04:30:15;;;;;;;3.55;2.85;;;;;;;2.32;100.00;99824.39;1701396;83;21478;-75
2024/03/19 04:32:45;;;;;;;4.83;2.85;;;;;;;2.31;100.00;99830.80;1702097;83;21523;-75
2024/03/19 04:35:14;;;;;;;3.10;2.42;;;;;;;2.30;100.00;99835.86;1702882;83;21110;-74
2024/03/19 04:37:45;;;;;;;5.00;2.55;;;;;;;2.32;100.00;99836.55;1710289;83;21066;-75
2024/03/19 04:40:14;;;;;;;3.67;2.77;;;;;;;2.35;100.00;99837.08;1704931;83;21055;-75
2024/03/19 04:42:43;;;;;;;4.75;2.83;;;;;;;2.37;100.00;99836.92;1707073;83;21537;-74
2024/03/19 04:45:12;;;;;;;3.15;2.58;;;;;;;2.39;100.00;99845.22;1682782;84;21134;-75
2024/03/19 04:47:42;;;;;;;4.12;2.42;;;;;;;2.42;100.00;99840.00;1709135;84;21506;-75
2024/03/19 04:50:12;;;;;;;2.95;2.25;;;;;;;2.43;100.00;99848.45;1705713;84;21042;-74
2024/03/19 04:52:42;;;;;;;4.42;2.50;;;;;;;2.46;100.00;99846.78;1700702;83;21548;-73
2024/03/19 04:55:11;;;;;;;2.83;2.05;;;;;;;2.49;100.00;99859.98;1708011;83;21090;-74
2024/03/19 04:57:41;;;;;;;3.98;1.85;;;;;;;2.50;100.00;99863.03;1702469;83;21122;-75
2024/03/19 05:00:16;;;;;;;2.72;2.20;;;;;;;2.49;100.00;99857.28;1704144;84;21063;-74
2024/03/19 05:02:45;;;;;;;3.22;2.10;;;;;;;2.47;100.00;99864.70;1709237;83;21109;-74
2024/03/19 05:05:15;;;;;;;4.30;2.58;;;;;;;2.46;100.00;99871.97;1708429;84;21504;-75
2024/03/19 05:07:44;;;;;;;3.35;2.47;;;;;;;2.48;100.00;99871.30;1708922;84;21086;-75
2024/03/19 05:10:13;;;;;;;3.83;2.30;;;;;;;2.53;100.00;99879.78;1707543;84;21054;-74
2024/03/19 05:12:43;;;;;;;2.52;2.00;;;;;;;2.57;100.00;99874.06;1708750;84;21119;-75
2024/03/19 05:15:12;;;;;;;2.15;1.80;;;;;;;2.57;100.00;99876.77;1704317;83;21478;-75
2024/03/19 05:17:41;;;;;;;4.50;2.20;;;;;;;2.57;100.00;99887.58;1709289;83;21055;-75
2024/03/19 05:20:11;;;;;;;3.72;2.20;;;;;;;2.58;100.00;99895.53;1702921;83;21094;-75
2024/03/19 05:22:40;;;;;;;2.85;2.00;;;;;;;2.61;100.00;99895.25;1701395;83;21118;-75
2024/03/19 05:25:10;;;;;;;3.30;2.15;;;;;;;2.62;100.00;99905.56;1701209;83;21027;-74
2024/03/19 05:27:40;;;;;;;3.22;2.00;;;;;;;2.61;100.00;99909.27;1701735;83;21118;-74
2024/03/19 05:30:10;;;;;;;4.15;2.55;;;;;;;2.62;100.00;99910.97;1702589;83;21479;-74
2024/03/19 05:32:38;;;;;;;2.35;2.10;;;;;;;2.64;100.00;99915.21;1702067;83;21071;-74
2024/03/19 05:35:09;;;;;;;3.83;2.35;;;;;;;2.66;100.00;99922.66;1699889;84;21067;-75
2024/03/19 05:37:38;;;;;;;2.40;1.80;;;;;;;2.66;100.00;99921.81;1701582;83;21055;-75
2024/03/19 05:40:09;;;;;;;2.85;1.70;;;;;;;2.67;100.00;99920.30;1701705;84;21062;-75
2024/03/19 05:42:39;;;;;;;1.95;1.55;;;;;;;2.66;100.00;99920.46;1706484;83;21054;-74
2024/03/19 05:45:08;;;;;;;1.90;1.30;;;;;;;2.65;100.00;99920.97;1702979;83;21099;-75
2024/03/19 05:47:39;;;;;;;2.35;1.60;;;;;;;2.68;100.00;99923.86;1704829;83;21937;-74
2024/03/19 05:50:09;;;;;;;3.83;1.98;;;;;;;2.71;100.00;99949.23;1701043;83;21095;-76
2024/03/19 05:52:39;;;;;;;2.98;1.50;;;;;;;2.72;100.00;99947.73;1708739;83;21134;-75
2024/03/19 05:55:21;;;;;;;2.87;1.72;;;;;;;2.74;100.00;99955.17;1708686;84;21047;-74
2024/03/19 05:57:50;;;;;;;6.70;2.27;;;;;;;2.73;100.00;99964.30;1695141;84;21105;-74
2024/03/19 06:00:21;;;;;;;4.83;1.90;;;;;;;2.74;100.00;99978.17;1666279;86;21085;-74
2024/03/19 06:02:52;;;;;;;4.17;2.00;;;;;;;2.74;100.00;99984.94;1695566;84;21543;-74
2024/03/19 06:05:21;;;;;;;4.67;1.87;;;;;;;2.79;100.00;99989.37;1731682;82;21679;-74
2024/03/19 06:07:52;;;;;;;6.03;1.70;;;;;;;2.82;100.00;99993.11;1730398;82;21051;-76
2024/03/19 06:10:20;;;;;;;2.60;1.72;;;;;;;2.85;100.00;99998.20;1730711;83;21063;-73
2024/03/19 06:12:50;;;;;;;2.00;1.80;;;;;;;2.90;100.00;100006.34;1730121;82;21134;-75
2024/03/19 06:15:19;;;;;;;3.05;1.70;;;;;;;2.88;100.00;100007.01;1730980;82;21055;-75
2024/03/19 06:17:48;;;;;;;4.12;1.95;;;;;;;2.85;100.00;100013.08;1730397;82;21511;-74
2024/03/19 06:20:20;;;;;;;4.22;2.10;;;;;;;2.85;100.00;100019.84;1730667;82;21051;-74
2024/03/19 06:22:49;;;;;;;2.70;1.98;;;;;;;2.88;100.00;100025.95;1729321;82;21087;-74
2024/03/19 06:25:18;;;;;;;3.02;1.80;;;;;;;2.94;100.00;100032.08;1729615;82;21086;-73
2024/03/19 06:27:47;;;;;;;2.25;1.67;;;;;;;2.93;100.00;100037.15;1725653;82;21138;-75
2024/03/19 06:30:17;;;;;;;2.70;1.98;;;;;;;2.93;100.00;100033.94;1702015;83;21087;-75
2024/03/19 06:32:46;;;;;;;2.52;1.95;;;;;;;2.93;100.00;100038.50;1723624;82;21107;-74
2024/03/19 06:35:15;;;;;;;3.10;2.00;;;;;;;2.94;100.00;100035.64;1729500;81;21791;-75
2024/03/19 06:37:44;;;;;;;5.22;2.60;;;;;;;2.96;100.00;100040.89;1734001;82;21078;-76
2024/03/19 06:40:13;;;;;;;3.60;2.20;;;;;;;2.99;100.00;100040.07;1730928;82;21090;-76
2024/03/19 06:42:45;;;;;;;3.58;2.22;;;;;;;3.03;100.00;100052.28;1725615;83;21565;-76
2024/03/19 06:45:15;;;;;;;5.42;2.62;;;;;;;3.09;100.00;100057.56;1728444;82;21063;-74
2024/03/19 06:47:44;;;;;;;3.77;2.37;;;;;;;3.13;100.00;100058.95;1725900;82;21083;-76
2024/03/19 06:50:14;;;;;;;3.22;2.10;;;;;;;3.16;100.00;100068.11;1728050;82;21452;-76
2024/03/19 06:52:45;;;;;;;3.77;2.50;;;;;;;3.17;100.00;100076.06;1729059;82;21065;-76
2024/03/19 06:55:15;;;;;;;3.72;2.33;;;;;;;3.22;100.00;100078.30;1726932;83;21457;-74
2024/03/19 06:57:45;;;;;;;3.33;1.87;;;;;;;3.24;100.00;100086.27;1726172;82;21067;-75
2024/03/19 07:00:18;;;;;;;2.80;2.05;;;;;;;3.27;100.00;100091.39;1723480;82;21147;-75
2024/03/19 07:02:47;;;;;;;2.75;2.02;;;;;;;3.27;100.00;100094.95;1727708;82;21091;-75
2024/03/19 07:05:17;;;;;;;3.33;2.42;;;;;;;3.29;100.00;100098.34;1738230;82;21051;-75
2024/03/19 07:07:46;;;;;;;2.77;2.08;;;;;;;3.27;100.00;100091.39;1733943;82;21067;-74
2024/03/19 07:10:15;;;;;;;2.47;1.82;;;;;;;3.28;100.00;100093.94;1738097;82;21027;-75
2024/03/19 07:12:44;;;;;;;3.58;2.50;;;;;;;3.26;100.00;100095.11;1723689;82;21095;-74
2024/03/19 07:15:17;;;;;;;4.90;2.00;;;;;;;3.22;100.00;100094.54;1733345;82;21043;-75
2024/03/19 07:17:52;;;;;;;4.05;2.50;;;;;;;3.23;100.00;100094.89;1732151;82;21039;-75
2024/03/19 07:20:18;;;;;;;3.58;2.27;;;;;;;3.27;100.00;100100.36;1738527;82;21495;-75
2024/03/19 07:22:49;;;;;;;2.87;2.08;;;;;;;3.31;100.00;100107.66;1731176;82;21071;-75
2024/03/19 07:25:20;;;;;;;4.58;3.17;;;;;;;3.35;100.00;100104.48;1730759;82;21083;-76
2024/03/19 07:27:49;;;;;;;4.10;2.20;;;;;;;3.40;100.00;100099.44;1725657;82;21491;-76
2024/03/19 07:30:21;;;;;;;4.12;2.60;;;;;;;3.47;100.00;100101.85;1724368;82;21043;-75
2024/03/19 07:32:49;;;;;;;4.05;2.70;;;;;;;3.53;100.00;100107.14;1732752;82;21059;-74
2024/03/19 07:35:19;;;;;;;4.97;2.87;;;;;;;3.57;100.00;100104.45;1732016;82;21475;-76
2024/03/19 07:37:49;;;;;;;4.37;2.60;;;;;;;3.65;100.00;100115.34;1730894;82;21126;-76
2024/03/19 07:40:21;;;;;;;4.85;2.62;;;;;;;3.71;100.00;100111.98;1730656;82;21023;-75
2024/03/19 07:42:50;;;;;;;3.58;2.60;;;;;;;3.74;100.00;100117.59;1723439;82;21067;-76
2024/03/19 07:45:19;;;;;;;6.20;3.15;;;;;;;3.77;100.00;100126.24;1732414;82;21055;-75
2024/03/19 07:47:48;;;;;;;5.35;3.60;;;;;;;3.79;100.00;100121.52;1738125;82;21055;-76
2024/03/19 07:50:22;;;;;;;5.37;3.17;;;;;;;3.85;100.00;100128.66;1732216;82;21130;-73
2024/03/19 07:52:49;;;;;;;7.03;4.97;;;;;;;3.87;100.00;100130.19;1726399;82;21055;-75
2024/03/19 07:55:21;;;;;;;4.25;3.10;;;;;;;3.88;100.00;100137.81;1726946;82;21095;-76
2024/03/19 07:57:50;;;;;;;4.22;2.85;;;;;;;3.88;100.00;100137.81;1730802;82;21451;-74
2024/03/19 08:00:20;;;;;;;6.10;3.15;;;;;;;3.87;100.00;100145.09;1729837;82;21518;-75
2024/03/19 08:02:49;;;;;;;4.95;3.20;;;;;;;3.84;99.79;100141.36;1732178;82;21015;-75
2024/03/19 08:05:18;;;;;;;5.62;3.60;;;;;;;3.86;99.78;100150.17;1720614;82;21082;-75
2024/03/19 08:07:47;;;;;;;6.83;4.20;;;;;;;3.91;99.88;100153.28;1730527;82;21067;-76
2024/03/19 08:10:18;;;;;;;7.35;4.00;;;;;;;3.95;99.96;100150.59;1735861;82;21043;-76
2024/03/19 08:12:47;;;;;;;4.83;3.30;;;;;;;4.01;100.00;100153.16;1730308;82;21060;-76
2024/03/19 08:15:17;;;;;;;9.65;4.37;;;;;;;4.07;100.00;100161.50;1733294;82;21075;-76
2024/03/19 08:17:46;;;;;;;9.63;3.67;;;;;;;4.13;99.67;100164.07;1725887;82;21131;-75
2024/03/19 08:20:17;;;;;;;7.17;4.67;;;;;;;4.12;98.96;100164.58;1730769;82;21087;-77
2024/03/19 08:22:46;;;;;;;6.17;3.77;;;;;;;4.12;98.61;100159.66;1729595;82;21086;-76
2024/03/19 08:25:18;;;;;;;4.37;3.20;;;;;;;4.16;98.57;100165.09;1737249;82;21562;-76
2024/03/19 08:27:47;;;;;;;7.78;4.00;;;;;;;4.21;98.12;100175.45;1732118;82;21509;-77
2024/03/19 08:30:17;;;;;;;8.20;4.28;;;;;;;4.28;98.13;100170.58;1721303;82;21118;-75
2024/03/19 08:32:46;;;;;;;4.60;3.30;;;;;;;4.38;98.08;100184.01;1726608;82;21044;-76
2024/03/19 08:35:16;;;;;;;7.17;3.90;;;;;;;4.43;97.05;100185.22;1718996;83;21054;-76
2024/03/19 08:37:46;;;;;;;4.62;3.22;;;;;;;4.45;96.66;100186.41;1727233;82;21047;-77
2024/03/19 08:40:15;;;;;;;4.28;3.45;;;;;;;4.49;96.05;100191.85;1737211;82;21035;-75
2024/03/19 08:42:44;;;;;;;5.37;3.80;;;;;;;4.52;95.91;100191.52;1718431;82;21050;-76
2024/03/19 08:45:12;;;;;;;6.95;3.92;;;;;;;4.58;95.31;100204.97;1729738;82;21036;-75
2024/03/19 08:47:41;;;;;;;6.75;4.22;;;;;;;4.61;94.61;100204.64;1732663;82;21106;-77
2024/03/19 08:50:11;;;;;;;4.20;3.27;;;;;;;4.66;94.72;100201.78;1730092;83;21530;-76
2024/03/19 08:52:40;;;;;;;4.83;3.62;;;;;;;4.79;94.80;100206.73;1724634;82;21107;-76
2024/03/19 08:55:12;;;;;;;5.47;3.75;;;;;;;4.96;94.42;100213.91;1732330;82;21079;-77
2024/03/19 08:57:41;;;;;;;6.50;3.37;;;;;;;5.11;93.59;100212.75;1730943;82;21060;-75
2024/03/19 09:00:15;;;;;;;5.65;3.08;;;;;;;5.18;92.27;100215.13;1738236;82;21054;-75
2024/03/19 09:02:44;;;;;;;6.75;3.00;;;;;;;5.25;91.46;100220.78;1727827;82;21665;-75
2024/03/19 09:05:13;;;;;;;11.25;3.83;;;;;;;5.29;90.38;100222.14;1736538;82;21223;-76
2024/03/19 09:07:42;;;;;;;8.18;3.37;;;;;;;5.31;89.50;100215.52;1729697;82;21467;-75
2024/03/19 09:10:12;;;;;;;7.72;3.47;;;;;;;5.38;88.30;100208.39;1731094;82;22605;-77
2024/03/19 09:12:42;;;;;;;5.60;3.40;;;;;;;5.47;88.50;100216.55;1726593;82;21545;-76
2024/03/19 09:15:13;;;;;;;8.55;4.15;;;;;;;5.54;86.91;100211.62;1730314;81;21091;-77
2024/03/19 09:17:42;;;;;;;6.87;3.90;;;;;;;5.55;86.74;100222.83;1727893;82;21510;-77
2024/03/19 09:20:11;;;;;;;6.25;4.17;;;;;;;5.60;86.86;100227.76;1703018;83;21098;-75
2024/03/19 09:22:40;;;;;;;10.25;4.25;;;;;;;5.67;86.74;100232.34;1713901;83;21053;-77
2024/03/19 09:25:09;;;;;;;6.87;3.70;;;;;;;5.74;86.09;100231.15;1725328;81;21084;-76
2024/03/19 09:27:39;;;;;;;4.50;3.30;;;;;;;5.75;84.86;100234.20;1719771;82;21161;-78
2024/03/19 09:30:09;;;;;;;6.70;3.30;;;;;;;5.79;83.92;100231.48;1714834;82;21099;-76
2024/03/19 09:32:38;;;;;;;5.47;3.40;;;;;;;5.84;83.35;100234.54;1693642;84;21199;-77
2024/03/19 09:35:08;;;;;;;8.05;3.95;;;;;;;5.86;82.85;100248.84;1706761;84;21115;-78
2024/03/19 09:37:37;;;;;;;5.05;3.17;;;;;;;5.82;82.18;100245.25;1698119;84;21064;-78
2024/03/19 09:40:10;;;;;;;14.63;5.00;;;;;;;5.83;82.49;100250.52;1699858;84;21135;-77
2024/03/19 09:42:39;;;;;;;7.75;4.00;;;;;;;5.86;82.30;100246.12;1697372;84;21495;-78
2024/03/19 09:45:16;;;;;;;6.75;3.37;;;;;;;5.85;81.08;100253.94;1699772;84;21083;-77
2024/03/19 09:47:45;;;;;;;9.10;4.92;;;;;;;5.83;82.14;100257.31;1705242;83;21040;-77
2024/03/19 09:50:15;;;;;;;12.63;4.67;;;;;;;5.79;82.08;100250.52;1706016;82;21042;-77
2024/03/19 09:52:44;;;;;;;7.12;3.70;;;;;;;5.79;82.11;100259.19;1714435;81;21055;-78
2024/03/19 09:55:15;;;;;;;19.52;7.87;;;;;;;5.81;82.21;100253.91;1731631;82;21023;-78
2024/03/19 09:57:48;;;;;;;14.05;6.60;;;;;;;5.87;82.40;100255.98;1728149;82;21075;-78
2024/03/19 10:00:26;;;;;;;12.75;5.37;;;;;;;5.92;81.97;100261.79;1722362;82;21126;-78
2024/03/19 10:02:55;;;;;;;5.45;3.77;;;;;;;5.95;81.28;100267.39;1723526;82;21146;-77
2024/03/19 10:05:28;;;;;;;4.78;3.15;;;;;;;5.98;81.56;100271.98;1732722;82;21016;-79
2024/03/19 10:08:19;;;;;;;5.47;3.02;;;;;;;6.01;81.44;100281.16;1704514;82;21083;-78
2024/03/19 10:10:47;;;;;;;5.77;3.20;;;;;;;6.01;80.99;100275.72;1724612;82;20987;-77
2024/03/19 10:13:16;;;;;;;4.08;2.83;;;;;;;5.98;80.24;100280.65;1741925;82;21085;-76
2024/03/19 10:15:52;;;;;;;6.80;2.90;;;;;;;5.88;80.02;100277.22;1717731;82;21090;-77
2024/03/19 10:18:23;;;;;;;3.80;2.77;;;;;;;5.83;80.12;100289.09;1722612;82;21022;-77
2024/03/19 10:20:57;;;;;;;7.95;3.30;;;;;;;5.80;80.04;100290.78;1753119;82;21081;-77
2024/03/19 10:23:26;;;;;;;8.55;3.15;;;;;;;5.79;80.54;100298.09;1704405;83;21070;-78
2024/03/19 10:25:55;;;;;;;7.10;3.12;;;;;;;5.80;80.80;100298.44;1707808;82;21114;-77
2024/03/19 10:28:24;;;;;;;6.00;3.00;;;;;;;5.81;80.43;100297.41;1745434;81;21042;-77
2024/03/19 10:30:53;;;;;;;4.92;3.05;;;;;;;5.76;80.13;100303.87;1753681;81;21616;-77
2024/03/19 10:33:22;;;;;;;7.08;3.42;;;;;;;5.73;79.84;100300.98;1710443;82;21064;-77
2024/03/19 10:35:51;;;;;;;9.63;3.50;;;;;;;5.73;80.10;100302.84;1757691;81;20994;-77
2024/03/19 10:38:21;;;;;;;8.00;5.30;;;;;;;5.75;80.25;100298.09;1753520;82;21513;-77
2024/03/19 10:40:55;;;;;;;4.35;2.72;;;;;;;5.77;80.01;100304.72;1750931;81;21085;-76
2024/03/19 10:43:26;;;;;;;5.80;2.62;;;;;;;5.81;79.87;100298.77;1752450;81;21105;-77
2024/03/19 10:45:54;;;;;;;6.65;2.60;;;;;;;5.86;78.68;100305.95;1719635;82;21094;-78
2024/03/19 10:48:23;;;;;;;4.70;2.70;;;;;;;5.88;78.52;100308.49;1725468;81;21578;-77
2024/03/19 10:50:52;;;;;;;5.72;3.30;;;;;;;5.92;78.60;100302.58;1725014;83;21486;-76
2024/03/19 10:53:22;;;;;;;7.67;3.42;;;;;;;5.97;78.33;100306.99;1723567;82;21517;-77
2024/03/19 10:55:54;;;;;;;4.83;2.80;;;;;;;6.01;78.31;100313.79;1722661;83;21100;-77
2024/03/19 10:58:24;;;;;;;5.92;3.02;;;;;;;6.07;77.87;100319.06;1728494;82;21142;-78
2024/03/19 11:00:53;;;;;;;9.35;3.15;;;;;;;6.11;77.76;100312.26;1721550;82;21139;-78
2024/03/19 11:03:22;;;;;;;7.87;3.10;;;;;;;6.19;77.26;100314.13;1738224;82;21084;-76
2024/03/19 11:05:56;;;;;;;6.53;3.02;;;;;;;6.28;77.90;100313.09;1726948;82;21566;-81
2024/03/19 11:08:26;;;;;;;5.10;2.67;;;;;;;6.39;77.30;100320.05;1716302;81;21052;-79
2024/03/19 11:11:07;;;;;;;6.25;2.70;;;;;;;6.42;75.86;100321.91;1721076;83;21089;-80
2024/03/19 11:13:37;;;;;;;3.95;2.77;;;;;;;6.42;74.62;100317.83;1699629;83;21113;-81
2024/03/19 11:16:16;;;;;;;5.00;3.00;;;;;;;6.42;73.94;100325.98;1720869;81;21065;-79
2024/03/19 11:18:51;;;;;;;7.58;2.67;;;;;;;6.46;73.86;100321.90;1728582;82;21100;-78
2024/03/19 11:21:22;;;;;;;5.50;3.40;;;;;;;6.50;73.08;100323.77;1731970;81;21055;-75
2024/03/19 11:23:51;;;;;;;14.70;4.17;;;;;;;6.54;72.89;100309.66;1704717;83;21043;-79
2024/03/19 11:26:22;;;;;;;9.48;2.87;;;;;;;6.60;72.93;100318.49;1734148;82;21443;-79
2024/03/19 11:29:01;;;;;;;5.60;2.77;;;;;;;6.67;72.56;100328.17;1732474;82;21055;-79
2024/03/19 11:31:38;;;;;;;10.50;2.80;;;;;;;6.71;72.77;100324.08;1731694;82;21533;-79
2024/03/19 11:34:07;;;;;;;3.15;1.72;;;;;;;6.74;72.36;100322.37;1730090;82;21151;-80
2024/03/19 11:36:35;;;;;;;5.87;2.60;;;;;;;6.75;71.10;100324.06;1678262;82;21070;-80
2024/03/19 11:39:07;;;;;;;7.58;3.15;;;;;;;6.73;70.44;100329.35;1731552;82;21024;-79
2024/03/19 11:41:36;;;;;;;8.25;3.77;;;;;;;6.68;70.53;100328.00;1728918;82;21088;-81